createdAt,value
2023-04-03T00:00:11.019Z,85.77
2023-04-03T00:05:17.257Z,86.27
2023-04-03T00:10:19.042Z,86.98
2023-04-03T00:15:22.976Z,87.67
2023-04-03T00:20:27.249Z,87.88
2023-04-03T00:25:28.916Z,89.00
2023-04-03T00:30:31.911Z,89.58
2023-04-03T00:35:39.141Z,89.40
2023-04-03T00:40:47.750Z,89.41
2023-04-03T00:45:56.736Z,91.17
2023-04-03T00:51:01.419Z,91.38
2023-04-03T00:56:10.850Z,91.39
2023-04-03T01:01:17.694Z,91.83
2023-04-03T01:06:33.959Z,92.46
2023-04-03T01:11:41.515Z,92.66
2023-04-03T01:16:56.015Z,93.69
2023-04-03T01:22:08.369Z,94.27
2023-04-03T01:27:11.386Z,95.03
2023-04-03T01:32:20.715Z,95.08
2023-04-03T01:37:22.487Z,96.37
2023-04-03T01:42:24.295Z,96.88
2023-04-03T01:47:26.179Z,96.22
2023-04-03T01:52:32.720Z,96.46
2023-04-03T01:57:34.517Z,97.13
2023-04-03T02:02:36.772Z,97.30
2023-04-03T02:07:40.787Z,97.96
2023-04-03T02:12:44.753Z,98.61
2023-04-03T02:17:48.947Z,98.76
2023-04-03T02:22:53.503Z,98.99
2023-04-03T02:27:55.209Z,99.89
2023-04-03T02:32:59.299Z,100.00
2023-04-03T02:38:02.331Z,100.00
2023-04-03T02:43:04.132Z,100.00
2023-04-03T02:48:06.515Z,100.00
2023-04-03T02:53:13.031Z,100.00
2023-04-03T02:58:16.952Z,100.00
2023-04-03T03:03:24.066Z,100.00
2023-04-03T03:08:25.813Z,100.00
2023-04-03T03:13:29.734Z,100.00
2023-04-03T03:18:34.053Z,100.00
2023-04-03T03:23:36.169Z,100.00
2023-04-03T03:28:41.387Z,100.00
2023-04-03T03:33:47.437Z,100.00
2023-04-03T03:38:51.455Z,100.00
2023-04-03T03:43:53.310Z,100.00
2023-04-03T03:49:00.494Z,100.00
2023-04-03T03:54:02.663Z,100.00
2023-04-03T03:59:06.904Z,100.00
2023-04-03T04:04:08.933Z,100.00
2023-04-03T04:09:13.163Z,100.00
2023-04-03T04:14:17.896Z,100.00
2023-04-03T04:19:25.231Z,100.00
2023-04-03T04:24:30.262Z,100.00
2023-04-03T04:29:36.777Z,100.00
2023-04-03T04:34:42.782Z,100.00
2023-04-03T04:39:48.187Z,100.00
2023-04-03T04:44:50.370Z,100.00
2023-04-03T04:49:54.641Z,100.00
2023-04-03T04:54:56.802Z,100.00
2023-04-03T05:00:04.045Z,100.00
2023-04-03T05:05:11.121Z,100.00
2023-04-03T05:10:15.856Z,100.00
2023-04-03T05:15:17.969Z,100.00
2023-04-03T05:20:22.255Z,100.00
2023-04-03T05:25:27.198Z,100.00
2023-04-03T05:30:32.049Z,100.00
2023-04-03T05:35:42.510Z,100.00
2023-04-03T05:40:48.188Z,100.00
2023-04-03T05:45:52.572Z,100.00
2023-04-03T05:50:58.625Z,100.00
2023-04-03T05:56:01.922Z,100.00
2023-04-03T06:01:09.988Z,100.00
2023-04-03T06:06:18.874Z,100.00
2023-04-03T06:11:25.155Z,100.00
2023-04-03T06:16:27.053Z,100.00
2023-04-03T06:21:28.830Z,100.00
2023-04-03T06:26:32.887Z,100.00
2023-04-03T06:31:39.842Z,100.00
2023-04-03T06:36:41.532Z,100.00
2023-04-03T06:41:47.709Z,100.00
2023-04-03T06:46:49.586Z,100.00
2023-04-03T06:51:51.490Z,100.00
2023-04-03T06:56:53.291Z,100.00
2023-04-03T07:01:55.281Z,100.00
2023-04-03T07:06:59.356Z,100.00
2023-04-03T07:12:03.780Z,99.07
2023-04-03T07:17:10.343Z,97.71
2023-04-03T07:22:14.437Z,96.88
2023-04-03T07:27:16.376Z,96.64
2023-04-03T07:32:18.628Z,95.33
2023-04-03T07:37:20.373Z,93.47
2023-04-03T07:42:24.410Z,92.03
2023-04-03T07:47:28.361Z,91.25
2023-04-03T07:52:34.948Z,90.04
2023-04-03T07:57:38.958Z,88.93
2023-04-03T08:02:43.736Z,86.79
2023-04-03T08:07:48.297Z,85.56
2023-04-03T08:12:52.918Z,83.35
2023-04-03T08:17:57.337Z,81.55
2023-04-03T08:22:59.131Z,79.68
2023-04-03T08:28:00.894Z,74.57
2023-04-03T08:33:04.015Z,72.63
2023-04-03T08:38:08.201Z,72.62
2023-04-03T08:43:12.101Z,70.60
2023-04-03T08:48:20.655Z,68.63
2023-04-03T08:53:28.171Z,67.54
2023-04-03T08:58:51.541Z,64.86
2023-04-03T09:03:55.980Z,64.88
2023-04-03T09:09:13.445Z,65.19
2023-04-03T09:14:24.556Z,63.63
2023-04-03T09:19:33.292Z,59.55
2023-04-03T09:24:35.179Z,60.26
2023-04-03T09:29:44.305Z,59.57
2023-04-03T09:34:46.642Z,58.52
2023-04-03T09:39:57.058Z,58.16
2023-04-03T09:45:00.209Z,58.13
2023-04-03T09:50:14.281Z,59.03
2023-04-03T09:55:17.503Z,58.07
2023-04-03T10:00:33.354Z,59.03
2023-04-03T10:05:40.767Z,59.30
2023-04-03T10:10:48.865Z,59.00
2023-04-03T10:16:03.231Z,59.08
2023-04-03T10:21:17.433Z,57.09
2023-04-03T10:26:37.483Z,56.86
2023-04-03T10:32:24.470Z,58.36
2023-04-03T10:37:51.118Z,57.37
2023-04-03T10:43:05.022Z,57.39
2023-04-03T10:48:20.511Z,56.43
2023-04-03T10:53:46.342Z,56.46
2023-04-03T10:58:55.660Z,55.00
2023-04-03T11:03:59.660Z,53.18
2023-04-03T11:09:04.734Z,52.78
2023-04-03T11:14:14.367Z,47.70
2023-04-03T11:19:16.035Z,46.16
2023-04-03T11:24:26.362Z,45.23
2023-04-03T11:29:35.946Z,41.54
2023-04-03T11:34:42.710Z,43.79
2023-04-03T11:39:58.442Z,44.54
2023-04-03T11:45:40.224Z,41.66
2023-04-03T11:50:47.227Z,43.25
2023-04-03T11:55:48.893Z,43.63
2023-04-03T12:01:02.659Z,42.21
2023-04-03T12:06:07.905Z,41.42
2023-04-03T12:11:09.693Z,40.14
2023-04-03T12:16:23.784Z,35.33
2023-04-03T12:21:28.314Z,36.07
2023-04-03T12:26:48.751Z,33.96
2023-04-03T12:31:59.921Z,33.10
2023-04-03T12:37:08.371Z,31.98
2023-04-03T12:42:22.402Z,30.90
2023-04-03T12:47:34.258Z,31.60
2023-04-03T12:52:44.504Z,30.01
2023-04-03T12:57:49.061Z,30.06
2023-04-03T13:02:53.359Z,29.64
2023-04-03T13:08:07.139Z,29.55
2023-04-03T13:13:11.949Z,28.08
2023-04-03T13:18:30.926Z,28.29
2023-04-03T13:23:35.097Z,27.54
2023-04-03T13:28:37.162Z,28.03
2023-04-03T13:33:43.166Z,26.56
2023-04-03T13:38:49.852Z,26.21
2023-04-03T13:44:00.451Z,25.80
2023-04-03T13:49:22.778Z,25.18
2023-04-03T13:54:42.092Z,25.34
2023-04-03T13:59:44.454Z,24.39
2023-04-03T14:04:46.307Z,24.67
2023-04-03T14:09:48.425Z,24.04
2023-04-03T14:14:55.051Z,24.60
2023-04-03T14:19:57.887Z,24.24
2023-04-03T14:25:04.558Z,23.45
2023-04-03T14:30:09.790Z,24.08
2023-04-03T14:35:11.649Z,23.75
2023-04-03T14:40:20.891Z,23.48
2023-04-03T14:45:25.052Z,23.70
2023-04-03T14:50:28.068Z,23.73
2023-04-03T14:55:30.483Z,25.39
2023-04-03T15:00:32.956Z,23.86
2023-04-03T15:05:36.237Z,24.76
2023-04-03T15:10:38.223Z,24.62
2023-04-03T15:15:43.001Z,25.29
2023-04-03T15:20:44.890Z,25.83
2023-04-03T15:25:48.941Z,25.16
2023-04-03T15:30:51.412Z,24.44
2023-04-03T15:35:55.810Z,25.19
2023-04-03T15:41:00.188Z,24.74
2023-04-03T15:46:02.537Z,24.56
2023-04-03T15:51:04.548Z,24.00
2023-04-03T15:56:06.348Z,25.56
2023-04-03T16:01:10.923Z,25.62
2023-04-03T16:06:14.275Z,25.27
2023-04-03T16:11:20.833Z,28.00
2023-04-03T16:16:23.334Z,30.40
2023-04-03T16:21:26.377Z,32.66
2023-04-03T16:26:28.900Z,36.01
2023-04-03T16:31:37.300Z,36.42
2023-04-03T16:36:41.420Z,37.99
2023-04-03T16:41:46.255Z,38.30
2023-04-03T16:46:48.499Z,40.09
2023-04-03T16:51:54.625Z,40.12
2023-04-03T16:56:56.450Z,41.21
2023-04-03T17:01:58.322Z,40.86
2023-04-03T17:07:06.943Z,42.50
2023-04-03T17:12:08.812Z,43.43
2023-04-03T17:17:10.945Z,44.75
2023-04-03T17:22:12.807Z,45.61
2023-04-03T17:27:16.930Z,46.83
2023-04-03T17:32:21.378Z,47.48
2023-04-03T17:37:23.196Z,49.46
2023-04-03T17:42:27.031Z,50.06
2023-04-03T17:47:31.172Z,51.34
2023-04-03T17:52:33.152Z,53.13
2023-04-03T17:57:34.896Z,53.48
2023-04-03T18:02:37.058Z,54.24
2023-04-03T18:07:39.442Z,54.98
2023-04-03T18:12:45.066Z,55.75
2023-04-03T18:17:51.415Z,56.43
2023-04-03T18:22:53.300Z,57.92
2023-04-03T18:27:55.242Z,59.68
2023-04-03T18:32:59.641Z,59.28
2023-04-03T18:38:04.787Z,60.49
2023-04-03T18:43:08.826Z,60.57
2023-04-03T18:48:10.960Z,60.13
2023-04-03T18:53:12.740Z,60.27
2023-04-03T18:58:14.672Z,61.47
2023-04-03T19:03:18.928Z,61.52
2023-04-03T19:08:20.832Z,63.27
2023-04-03T19:13:22.702Z,63.96
2023-04-03T19:18:26.217Z,65.31
2023-04-03T19:23:28.262Z,65.63
2023-04-03T19:28:31.043Z,66.69
2023-04-03T19:33:36.008Z,67.35
2023-04-03T19:38:40.132Z,68.34
2023-04-03T19:43:42.498Z,68.36
2023-04-03T19:48:47.346Z,69.37
2023-04-03T19:53:54.035Z,69.33
2023-04-03T19:58:56.797Z,71.80
2023-04-03T20:03:59.144Z,75.02
2023-04-03T20:09:01.679Z,73.69
2023-04-03T20:14:04.004Z,73.08
2023-04-03T20:19:07.950Z,71.39
2023-04-03T20:24:12.066Z,68.85
2023-04-03T20:29:16.465Z,65.10
2023-04-03T20:34:18.336Z,63.49
2023-04-03T20:39:24.686Z,63.37
2023-04-03T20:44:28.930Z,62.95
2023-04-03T20:49:31.261Z,63.02
2023-04-03T20:54:33.793Z,63.33
2023-04-03T20:59:36.944Z,64.10
2023-04-03T21:04:52.933Z,64.79
2023-04-03T21:10:32.498Z,65.80
2023-04-03T21:15:46.517Z,66.20
2023-04-03T21:20:51.320Z,66.65
2023-04-03T21:25:53.001Z,67.12
2023-04-03T21:30:54.755Z,68.28
2023-04-03T21:35:59.967Z,68.53
2023-04-03T21:41:04.493Z,68.91
2023-04-03T21:46:08.792Z,68.65
2023-04-03T21:51:12.790Z,69.40
2023-04-03T21:56:14.595Z,69.72
2023-04-03T22:01:19.523Z,70.12
2023-04-03T22:06:23.894Z,71.12
2023-04-03T22:11:27.166Z,71.32
2023-04-03T22:16:29.032Z,71.60
2023-04-03T22:21:33.829Z,71.64
2023-04-03T22:26:40.716Z,72.61
2023-04-03T22:31:46.771Z,72.74
2023-04-03T22:36:51.139Z,73.66
2023-04-03T22:41:57.325Z,73.44
2023-04-03T22:47:02.335Z,73.09
2023-04-03T22:52:04.183Z,73.52
2023-04-03T22:57:09.596Z,73.92
2023-04-03T23:02:15.683Z,74.35
2023-04-03T23:07:22.744Z,73.43
2023-04-03T23:12:24.425Z,74.03
2023-04-03T23:17:26.174Z,74.12
2023-04-03T23:22:27.884Z,74.17
2023-04-03T23:27:29.579Z,74.58
2023-04-03T23:32:31.364Z,75.43
2023-04-03T23:37:37.802Z,76.09
2023-04-03T23:42:42.951Z,76.86
2023-04-03T23:47:49.435Z,77.09
2023-04-03T23:52:53.323Z,77.88
2023-04-03T23:57:57.422Z,77.94
